Terminal Aerodrome Forecast
Issued by NWS

Home | Current Version | Previous Version | Text Only | Print | Product List | Glossary On
Versions: 1 2 3 4 5 6 7 8 9 10 11 12 13 14 15 16 17 18 19 20 21 22 23 24 25 26 27
000
FTAK31 PANC 231822 AAA
TAFAIL
TAF AMD
PAIL 231822Z 2318/2418 30011KT P6SM SCT035
     FM240000 24005KT P6SM SCT030 OVC080
     FM240400 31008KT P6SM VCSH BKN040
     FM240700 VRB06KT 2SM -SN BR OVC012=

USA.gov is the U.S. government's official web portal to all federal, state and local government web resources and services.